Time;durP1;ratioP1;P1;durP2;ratioP2;P2;SDS_P1;SDS_P2;PMS_P1;PMS_P2;Temp;Humidity;BMP_temperature;BMP_pressure;BME280_temperature;BME280_humidity;BME280_pressure;Samples;Min_cycle;Max_cycle;Signal;HPM_P1;HPM_P2
2023/06/13 00:02:02;;;;;;;;;;;16.70;99.90;;;;;;5062754;28;19966;-74
2023/06/13 00:04:30;;;;;;;;;;;16.80;99.90;;;;;;5064429;28;19904;-74
2023/06/13 00:06:57;;;;;;;;;;;16.80;99.90;;;;;;5062456;28;19935;-74
2023/06/13 00:09:23;;;;;;;;;;;16.90;99.90;;;;;;5064565;28;19917;-74
2023/06/13 00:11:49;;;;;;;;;;;16.90;99.90;;;;;;5062517;28;19969;-74
2023/06/13 00:14:16;;;;;;;;;;;16.90;99.90;;;;;;5062033;28;19908;-74
2023/06/13 00:16:47;;;;;;;;;;;16.90;99.90;;;;;;5043988;28;19908;-73
2023/06/13 00:19:13;;;;;;;;;;;16.90;99.90;;;;;;5053333;28;19915;-73
2023/06/13 00:21:38;;;;;;;;;;;16.80;99.90;;;;;;5058957;28;19956;-73
2023/06/13 00:24:04;;;;;;;;;;;16.80;99.90;;;;;;5058422;28;19999;-76
2023/06/13 00:26:30;;;;;;;;;;;16.80;99.90;;;;;;5042796;28;19947;-74
2023/06/13 00:28:55;;;;;;;;;;;16.90;99.90;;;;;;5058085;28;19911;-73
2023/06/13 00:31:21;;;;;;;;;;;16.80;99.90;;;;;;5053096;28;20374;-75
2023/06/13 00:33:50;;;;;;;;;;;16.90;99.90;;;;;;5057122;28;19977;-74
2023/06/13 00:36:20;;;;;;;;;;;17.00;99.90;;;;;;5052862;28;19912;-75
2023/06/13 00:38:47;;;;;;;;;;;17.00;99.90;;;;;;5057366;28;19919;-75
2023/06/13 00:41:13;;;;;;;;;;;17.10;99.90;;;;;;5056748;28;19939;-73
2023/06/13 00:43:39;;;;;;;;;;;17.00;99.90;;;;;;5056666;28;20414;-74
2023/06/13 00:46:05;;;;;;;;;;;17.10;99.90;;;;;;5055834;28;19913;-73
2023/06/13 00:48:31;;;;;;;;;;;16.90;99.90;;;;;;5052290;28;19917;-73
2023/06/13 00:50:57;;;;;;;;;;;16.90;99.90;;;;;;5057347;28;19908;-73
2023/06/13 00:53:29;;;;;;;;;;;16.90;99.90;;;;;;5061463;28;19950;-74
2023/06/13 00:55:55;;;;;;;;;;;16.90;99.90;;;;;;5064614;28;20039;-73
2023/06/13 00:58:20;;;;;;;;;;;16.90;99.90;;;;;;5062551;28;20362;-73
2023/06/13 01:00:46;;;;;;;;;;;16.90;99.90;;;;;;5063768;28;20025;-72
2023/06/13 01:03:15;;;;;;;;;;;17.00;99.90;;;;;;5063466;28;19919;-73
2023/06/13 01:05:41;;;;;;;;;;;16.90;99.90;;;;;;5061826;28;19909;-73
2023/06/13 01:08:09;;;;;;;;;;;17.00;99.90;;;;;;5059499;28;19916;-73
2023/06/13 01:10:36;;;;;;;;;;;17.00;99.90;;;;;;5061262;28;19912;-74
2023/06/13 01:13:13;;;;;;;;;;;17.00;99.90;;;;;;5058597;28;19990;-72
2023/06/13 01:15:44;;;;;;;;;;;17.00;99.90;;;;;;5056503;28;20722;-75
2023/06/13 01:18:10;;;;;;;;;;;17.00;99.90;;;;;;5055041;28;19955;-74
2023/06/13 01:20:36;;;;;;;;;;;16.90;99.90;;;;;;5063876;28;20011;-73
2023/06/13 01:23:15;;;;;;;;;;;16.80;99.90;;;;;;5063006;28;19909;-74
2023/06/13 01:25:52;;;;;;;;;;;16.90;99.90;;;;;;5057062;28;20019;-74
2023/06/13 01:28:20;;;;;;;;;;;16.90;99.90;;;;;;5053099;28;19916;-74
2023/06/13 01:30:46;;;;;;;;;;;16.90;99.90;;;;;;5059002;28;20331;-74
2023/06/13 01:33:12;;;;;;;;;;;16.90;99.90;;;;;;5054806;28;19943;-74
2023/06/13 01:35:38;;;;;;;;;;;16.90;99.90;;;;;;5056965;28;19997;-74
2023/06/13 01:38:04;;;;;;;;;;;16.80;99.90;;;;;;5042685;28;20623;-74
2023/06/13 01:40:29;;;;;;;;;;;16.80;99.90;;;;;;5051643;28;19916;-74
2023/06/13 01:42:55;;;;;;;;;;;16.90;99.90;;;;;;5052570;28;19908;-75
2023/06/13 01:45:21;;;;;;;;;;;16.90;99.90;;;;;;5050493;28;19911;-75
2023/06/13 01:47:47;;;;;;;;;;;16.90;99.90;;;;;;5050436;28;19909;-75
2023/06/13 01:50:20;;;;;;;;;;;16.80;99.90;;;;;;5054430;28;19931;-74
2023/06/13 01:53:02;;;;;;;;;;;16.80;99.90;;;;;;5058490;28;20314;-74
2023/06/13 01:55:38;;;;;;;;;;;16.80;99.90;;;;;;5055225;28;19960;-75
2023/06/13 01:58:09;;;;;;;;;;;16.80;99.90;;;;;;5058404;28;20687;-76
2023/06/13 02:00:35;;;;;;;;;;;16.80;99.90;;;;;;5063371;28;19916;-74
2023/06/13 02:03:03;;;;;;;;;;;16.80;99.90;;;;;;5062450;28;20006;-74
2023/06/13 02:05:29;;;;;;;;;;;16.80;99.90;;;;;;5044294;28;19914;-74
2023/06/13 02:07:56;;;;;;;;;;;16.70;99.90;;;;;;5061249;28;19908;-75
2023/06/13 02:10:22;;;;;;;;;;;16.70;99.90;;;;;;5063663;28;19957;-74
2023/06/13 02:12:48;;;;;;;;;;;16.70;99.90;;;;;;5063741;28;20339;-74
2023/06/13 02:15:13;;;;;;;;;;;16.70;99.90;;;;;;5063484;28;20504;-76
2023/06/13 02:17:39;;;;;;;;;;;16.70;99.90;;;;;;5061408;28;19908;-75
2023/06/13 02:20:06;;;;;;;;;;;16.70;99.90;;;;;;5056663;28;19942;-76
2023/06/13 02:22:32;;;;;;;;;;;16.80;99.90;;;;;;5056391;28;19916;-74
2023/06/13 02:24:58;;;;;;;;;;;16.80;99.90;;;;;;5050103;28;19910;-74
2023/06/13 02:27:23;;;;;;;;;;;16.80;99.90;;;;;;5058495;28;20086;-74
2023/06/13 02:29:49;;;;;;;;;;;16.80;99.90;;;;;;5057827;28;19912;-76
2023/06/13 02:32:15;;;;;;;;;;;16.70;99.90;;;;;;5040223;28;20366;-75
2023/06/13 02:34:40;;;;;;;;;;;16.70;99.90;;;;;;5056555;28;20382;-74
2023/06/13 02:37:06;;;;;;;;;;;16.70;99.90;;;;;;5053098;28;19923;-74
2023/06/13 02:39:32;;;;;;;;;;;16.70;99.90;;;;;;5059310;28;20035;-74
2023/06/13 02:41:57;;;;;;;;;;;16.80;99.90;;;;;;5057037;28;19970;-74
2023/06/13 02:44:23;;;;;;;;;;;16.80;99.90;;;;;;5062068;28;19915;-74
2023/06/13 02:46:48;;;;;;;;;;;16.70;99.90;;;;;;5060618;28;19915;-74
2023/06/13 02:49:14;;;;;;;;;;;16.70;99.90;;;;;;5053035;28;19919;-75
2023/06/13 02:51:39;;;;;;;;;;;16.70;99.90;;;;;;5057101;28;20046;-75
2023/06/13 02:54:07;;;;;;;;;;;16.70;99.90;;;;;;5067121;28;20010;-74
2023/06/13 02:56:33;;;;;;;;;;;16.80;99.90;;;;;;5065251;28;19912;-74
2023/06/13 02:58:59;;;;;;;;;;;16.80;99.90;;;;;;5064624;28;19904;-74
2023/06/13 03:01:26;;;;;;;;;;;16.80;99.90;;;;;;5063226;28;20365;-75
2023/06/13 03:03:52;;;;;;;;;;;16.90;99.90;;;;;;5063378;28;20371;-74
2023/06/13 03:06:18;;;;;;;;;;;16.90;99.90;;;;;;5064308;28;20382;-74
2023/06/13 03:08:44;;;;;;;;;;;17.00;99.90;;;;;;5063237;28;19919;-76
2023/06/13 03:11:12;;;;;;;;;;;16.80;99.90;;;;;;5060109;28;19908;-75
2023/06/13 03:13:38;;;;;;;;;;;16.80;99.90;;;;;;5046963;28;20036;-75
2023/06/13 03:16:04;;;;;;;;;;;16.80;99.90;;;;;;5063325;28;21265;-74
2023/06/13 03:18:29;;;;;;;;;;;16.80;99.90;;;;;;5060670;28;19912;-75
2023/06/13 03:20:55;;;;;;;;;;;16.80;99.90;;;;;;5063638;28;20015;-75
2023/06/13 03:23:21;;;;;;;;;;;16.80;99.90;;;;;;5060054;28;19956;-74
2023/06/13 03:25:46;;;;;;;;;;;16.80;99.90;;;;;;5042802;28;20150;-74
2023/06/13 03:28:12;;;;;;;;;;;16.80;99.90;;;;;;5060159;28;19908;-74
2023/06/13 03:30:38;;;;;;;;;;;16.70;99.90;;;;;;5057325;28;19939;-74
2023/06/13 03:33:03;;;;;;;;;;;16.80;99.90;;;;;;5042383;28;19912;-74
2023/06/13 03:35:29;;;;;;;;;;;16.80;99.90;;;;;;5061464;28;19909;-75
2023/06/13 03:37:54;;;;;;;;;;;16.80;99.90;;;;;;5054770;28;19912;-76
2023/06/13 03:40:20;;;;;;;;;;;16.80;99.90;;;;;;5062951;28;19939;-75
2023/06/13 03:42:45;;;;;;;;;;;16.70;99.90;;;;;;5053688;28;19904;-74
2023/06/13 03:45:15;;;;;;;;;;;16.70;99.90;;;;;;5062357;28;19919;-73
2023/06/13 03:47:40;;;;;;;;;;;16.70;99.90;;;;;;5052253;28;20379;-74
2023/06/13 03:50:06;;;;;;;;;;;16.60;99.90;;;;;;5058912;28;19926;-74
2023/06/13 03:52:32;;;;;;;;;;;16.70;99.90;;;;;;5062667;28;19924;-74
2023/06/13 03:54:57;;;;;;;;;;;16.60;99.90;;;;;;5061430;28;19962;-74
2023/06/13 03:57:23;;;;;;;;;;;16.60;99.90;;;;;;5065275;28;19904;-74
2023/06/13 03:59:48;;;;;;;;;;;16.60;99.90;;;;;;5068886;28;19908;-74
2023/06/13 04:02:14;;;;;;;;;;;16.60;99.90;;;;;;5063965;28;19965;-76
2023/06/13 04:04:44;;;;;;;;;;;16.60;99.90;;;;;;5066012;28;19964;-75
2023/06/13 04:07:10;;;;;;;;;;;16.60;99.90;;;;;;5061125;28;19908;-76
2023/06/13 04:09:36;;;;;;;;;;;16.50;99.90;;;;;;5061623;28;19916;-73
2023/06/13 04:12:02;;;;;;;;;;;16.50;99.90;;;;;;5062216;28;19908;-74
2023/06/13 04:14:28;;;;;;;;;;;16.40;99.90;;;;;;5059169;28;20251;-74
2023/06/13 04:16:53;;;;;;;;;;;16.40;99.90;;;;;;5057338;28;19916;-74
2023/06/13 04:19:19;;;;;;;;;;;16.40;99.90;;;;;;5054947;28;20030;-74
2023/06/13 04:21:46;;;;;;;;;;;16.40;99.90;;;;;;5059527;28;19920;-74
2023/06/13 04:24:14;;;;;;;;;;;16.40;99.90;;;;;;5058449;28;19908;-74
2023/06/13 04:26:40;;;;;;;;;;;16.40;99.90;;;;;;5057005;28;19908;-74
2023/06/13 04:29:06;;;;;;;;;;;16.40;99.90;;;;;;5043921;28;19915;-74
2023/06/13 04:31:34;;;;;;;;;;;16.40;99.90;;;;;;5043219;28;19915;-76
2023/06/13 04:34:03;;;;;;;;;;;16.50;99.90;;;;;;5053537;28;20395;-75
2023/06/13 04:36:32;;;;;;;;;;;16.50;99.90;;;;;;5046790;28;19919;-76
2023/06/13 04:39:01;;;;;;;;;;;16.60;99.90;;;;;;5049062;28;19917;-76
2023/06/13 04:41:26;;;;;;;;;;;16.60;99.90;;;;;;5050251;28;19921;-76
2023/06/13 04:43:53;;;;;;;;;;;16.60;99.90;;;;;;5060161;28;19989;-74
2023/06/13 04:46:18;;;;;;;;;;;16.70;99.90;;;;;;5061382;28;19908;-75
2023/06/13 04:48:44;;;;;;;;;;;16.70;99.90;;;;;;5055461;28;19924;-75
2023/06/13 04:51:09;;;;;;;;;;;16.80;99.90;;;;;;5059216;28;19997;-75
2023/06/13 04:53:37;;;;;;;;;;;16.90;99.90;;;;;;5051085;28;19921;-76
2023/06/13 04:56:03;;;;;;;;;;;17.00;99.90;;;;;;5051733;28;19920;-75
2023/06/13 04:58:29;;;;;;;;;;;17.10;99.90;;;;;;5051062;28;19917;-75
2023/06/13 05:00:57;;;;;;;;;;;17.10;99.90;;;;;;5056322;28;20445;-75
2023/06/13 05:03:23;;;;;;;;;;;17.20;99.90;;;;;;5051332;28;19912;-74
2023/06/13 05:05:50;;;;;;;;;;;17.20;99.90;;;;;;5052139;28;19962;-76
2023/06/13 05:08:21;;;;;;;;;;;17.30;99.90;;;;;;5053187;28;19999;-75
2023/06/13 05:10:46;;;;;;;;;;;17.30;99.90;;;;;;5060897;28;19913;-76
2023/06/13 05:13:12;;;;;;;;;;;17.30;99.90;;;;;;5033469;28;19927;-75
2023/06/13 05:15:38;;;;;;;;;;;17.30;99.90;;;;;;5057337;28;19943;-76
2023/06/13 05:18:06;;;;;;;;;;;17.40;99.90;;;;;;5052507;28;19912;-75
2023/06/13 05:20:35;;;;;;;;;;;17.50;99.90;;;;;;5041686;28;20363;-75
2023/06/13 05:23:01;;;;;;;;;;;17.60;99.90;;;;;;5054369;28;19908;-75
2023/06/13 05:25:27;;;;;;;;;;;17.60;99.90;;;;;;5054352;28;19919;-75
2023/06/13 05:27:53;;;;;;;;;;;17.70;99.90;;;;;;5053968;28;19912;-76
2023/06/13 05:30:20;;;;;;;;;;;17.60;99.90;;;;;;5052463;28;19917;-75
2023/06/13 05:32:46;;;;;;;;;;;17.60;99.90;;;;;;5053509;28;19982;-75
2023/06/13 05:35:12;;;;;;;;;;;17.70;99.90;;;;;;5053953;28;19908;-75
2023/06/13 05:37:41;;;;;;;;;;;17.60;99.90;;;;;;5041070;28;19908;-77
2023/06/13 05:40:07;;;;;;;;;;;17.60;99.90;;;;;;5045182;28;20279;-75
2023/06/13 05:42:35;;;;;;;;;;;17.60;99.90;;;;;;5032486;28;20328;-74
2023/06/13 05:45:04;;;;;;;;;;;17.70;99.90;;;;;;5043162;28;19908;-75
2023/06/13 05:47:29;;;;;;;;;;;17.80;99.90;;;;;;5046205;28;19935;-74
2023/06/13 05:49:55;;;;;;;;;;;17.80;99.90;;;;;;5044398;28;20359;-76
2023/06/13 05:52:21;;;;;;;;;;;17.90;99.90;;;;;;5036118;28;19962;-75
2023/06/13 05:54:46;;;;;;;;;;;17.90;99.90;;;;;;5055454;28;19909;-76
2023/06/13 05:57:12;;;;;;;;;;;17.90;99.90;;;;;;5056006;28;19913;-75
2023/06/13 05:59:38;;;;;;;;;;;17.80;99.90;;;;;;5053091;28;20007;-74
2023/06/13 06:02:03;;;;;;;;;;;17.60;99.90;;;;;;5047620;28;20802;-74
2023/06/13 06:04:29;;;;;;;;;;;17.60;99.90;;;;;;5038546;28;19962;-73
2023/06/13 06:06:54;;;;;;;;;;;17.60;99.90;;;;;;5057076;28;19961;-74
2023/06/13 06:09:20;;;;;;;;;;;17.40;99.90;;;;;;5063263;28;19916;-75
2023/06/13 06:11:46;;;;;;;;;;;17.30;99.90;;;;;;5029007;28;19912;-74
2023/06/13 06:14:11;;;;;;;;;;;17.50;99.90;;;;;;5056423;28;19960;-76
2023/06/13 06:16:37;;;;;;;;;;;17.50;99.90;;;;;;5058387;28;20263;-76
2023/06/13 06:19:02;;;;;;;;;;;17.70;99.90;;;;;;5049576;28;20333;-75
2023/06/13 06:21:28;;;;;;;;;;;17.70;99.90;;;;;;5046553;28;19920;-74
2023/06/13 06:23:54;;;;;;;;;;;17.70;99.90;;;;;;5049333;28;19908;-76
2023/06/13 06:26:20;;;;;;;;;;;17.80;99.90;;;;;;5054965;28;20696;-77
2023/06/13 06:28:46;;;;;;;;;;;18.00;99.90;;;;;;5052833;28;19916;-76
2023/06/13 06:31:12;;;;;;;;;;;18.10;99.90;;;;;;5046677;28;19919;-75
2023/06/13 06:33:37;;;;;;;;;;;18.00;99.90;;;;;;5043293;28;19915;-75
2023/06/13 06:36:03;;;;;;;;;;;18.20;99.90;;;;;;5038041;28;19908;-77
2023/06/13 06:38:29;;;;;;;;;;;18.30;99.90;;;;;;5050008;28;20007;-76
2023/06/13 06:40:54;;;;;;;;;;;18.20;99.90;;;;;;5062211;28;19939;-78
2023/06/13 06:43:20;;;;;;;;;;;18.40;99.90;;;;;;5042909;28;19909;-77
2023/06/13 06:45:45;;;;;;;;;;;18.50;99.90;;;;;;5043825;28;19950;-76
2023/06/13 06:48:11;;;;;;;;;;;18.70;99.90;;;;;;5050637;28;19908;-74
2023/06/13 06:50:37;;;;;;;;;;;18.90;99.90;;;;;;5050109;28;19908;-74
2023/06/13 06:53:03;;;;;;;;;;;19.00;99.90;;;;;;5050328;28;19921;-74
2023/06/13 06:55:28;;;;;;;;;;;19.00;99.90;;;;;;5027590;28;19919;-74
2023/06/13 06:57:54;;;;;;;;;;;19.20;99.90;;;;;;5042700;28;19958;-77
2023/06/13 07:00:21;;;;;;;;;;;19.20;99.90;;;;;;5049825;28;20402;-75
2023/06/13 07:02:46;;;;;;;;;;;19.50;99.90;;;;;;5051763;28;19913;-74
2023/06/13 07:05:12;;;;;;;;;;;19.80;99.90;;;;;;5056170;28;20317;-74
2023/06/13 07:07:37;;;;;;;;;;;20.00;99.90;;;;;;5047641;28;20427;-74
2023/06/13 07:10:04;;;;;;;;;;;20.30;99.90;;;;;;5047896;28;20449;-75
2023/06/13 07:12:32;;;;;;;;;;;20.30;99.90;;;;;;5050161;28;19963;-77
2023/06/13 07:14:57;;;;;;;;;;;20.40;99.90;;;;;;5046333;28;19909;-75
2023/06/13 07:17:23;;;;;;;;;;;20.40;99.90;;;;;;5065924;28;19919;-75
2023/06/13 07:19:49;;;;;;;;;;;20.50;99.90;;;;;;5046261;28;20134;-77
2023/06/13 07:22:15;;;;;;;;;;;20.40;99.90;;;;;;5045807;28;20442;-78
2023/06/13 07:24:40;;;;;;;;;;;20.30;99.90;;;;;;5046069;28;19908;-75
2023/06/13 07:27:06;;;;;;;;;;;20.40;99.90;;;;;;5034831;28;19908;-75
2023/06/13 07:29:32;;;;;;;;;;;20.50;99.90;;;;;;5059972;28;19911;-74
2023/06/13 07:31:57;;;;;;;;;;;20.30;99.90;;;;;;5072595;28;19908;-75
2023/06/13 07:34:23;;;;;;;;;;;20.10;99.90;;;;;;5064975;28;19915;-75
2023/06/13 07:36:49;;;;;;;;;;;20.20;99.90;;;;;;5064978;28;19908;-77
2023/06/13 07:39:14;;;;;;;;;;;20.10;99.90;;;;;;5064785;28;20728;-78
2023/06/13 07:41:40;;;;;;;;;;;19.70;99.90;;;;;;5052180;28;19916;-77
2023/06/13 07:44:06;;;;;;;;;;;19.70;99.90;;;;;;5063084;28;19904;-74
2023/06/13 07:46:31;;;;;;;;;;;19.80;99.90;;;;;;5052149;28;19928;-75
2023/06/13 07:48:57;;;;;;;;;;;19.90;99.90;;;;;;5058488;28;19909;-73
2023/06/13 07:51:24;;;;;;;;;;;19.80;99.90;;;;;;5058573;28;19908;-75
2023/06/13 07:53:49;;;;;;;;;;;19.90;99.90;;;;;;5052419;28;19966;-76
2023/06/13 07:56:15;;;;;;;;;;;20.20;99.90;;;;;;5054900;28;19924;-75
2023/06/13 07:58:40;;;;;;;;;;;20.50;99.90;;;;;;5045898;28;19918;-73
2023/06/13 08:01:06;;;;;;;;;;;20.60;99.90;;;;;;5064246;28;19913;-74
2023/06/13 08:03:32;;;;;;;;;;;20.70;99.90;;;;;;5054527;28;19940;-74
2023/06/13 08:05:57;;;;;;;;;;;20.80;99.90;;;;;;5051277;28;20473;-78
2023/06/13 08:08:23;;;;;;;;;;;20.80;99.90;;;;;;5058033;28;19908;-75
2023/06/13 08:10:49;;;;;;;;;;;21.00;99.90;;;;;;5058311;28;20751;-76
2023/06/13 08:13:14;;;;;;;;;;;21.00;99.90;;;;;;5045352;28;19913;-77
2023/06/13 08:15:40;;;;;;;;;;;20.90;99.90;;;;;;5046380;28;19916;-76
2023/06/13 08:18:05;;;;;;;;;;;21.00;99.90;;;;;;5046048;28;19959;-74
2023/06/13 08:20:31;;;;;;;;;;;20.80;99.90;;;;;;5047093;28;19904;-73
2023/06/13 08:22:59;;;;;;;;;;;20.80;99.90;;;;;;5056433;28;19916;-73
2023/06/13 08:25:24;;;;;;;;;;;20.70;99.90;;;;;;5057508;28;19917;-78
2023/06/13 08:27:52;;;;;;;;;;;20.60;99.90;;;;;;5053456;28;19963;-75
2023/06/13 08:30:17;;;;;;;;;;;20.60;99.90;;;;;;5059584;28;19910;-74
2023/06/13 08:32:46;;;;;;;;;;;20.70;99.90;;;;;;5077053;28;20314;-74
2023/06/13 08:35:12;;;;;;;;;;;20.90;99.90;;;;;;5064827;28;19904;-73
2023/06/13 08:37:38;;;;;;;;;;;21.20;99.90;;;;;;5063916;28;20357;-74
2023/06/13 08:40:05;;;;;;;;;;;21.60;99.90;;;;;;5064096;28;19908;-75
2023/06/13 08:42:32;;;;;;;;;;;22.00;99.90;;;;;;5052802;28;19916;-75
2023/06/13 08:44:58;;;;;;;;;;;22.20;99.90;;;;;;5063294;28;20302;-78
2023/06/13 08:47:23;;;;;;;;;;;22.30;99.90;;;;;;5062393;28;19934;-74
2023/06/13 08:49:49;;;;;;;;;;;22.40;99.90;;;;;;5062699;28;19916;-76
2023/06/13 08:52:16;;;;;;;;;;;22.30;98.20;;;;;;5060298;28;19913;-79
2023/06/13 08:54:43;;;;;;;;;;;22.10;97.50;;;;;;5060475;28;19950;-74
2023/06/13 08:57:12;;;;;;;;;;;22.00;99.70;;;;;;5059409;28;20402;-74
2023/06/13 08:59:38;;;;;;;;;;;22.00;99.60;;;;;;5067311;28;19912;-74
2023/06/13 09:02:05;;;;;;;;;;;21.80;99.70;;;;;;5063241;28;19985;-78
2023/06/13 09:04:31;;;;;;;;;;;21.90;99.80;;;;;;5064330;28;19908;-74
2023/06/13 09:06:58;;;;;;;;;;;21.80;99.90;;;;;;5059253;28;20425;-74
2023/06/13 09:09:27;;;;;;;;;;;21.60;99.90;;;;;;5057273;28;19915;-74
2023/06/13 09:11:52;;;;;;;;;;;21.40;99.90;;;;;;5060864;28;19914;-78
2023/06/13 09:14:19;;;;;;;;;;;21.20;99.90;;;;;;5061543;28;19908;-74
2023/06/13 09:16:44;;;;;;;;;;;21.10;99.90;;;;;;5060476;28;19968;-79
2023/06/13 09:19:10;;;;;;;;;;;21.10;99.90;;;;;;5055656;28;19904;-74
2023/06/13 09:21:37;;;;;;;;;;;21.20;99.90;;;;;;5053830;28;19945;-75
2023/06/13 09:24:03;;;;;;;;;;;21.10;99.90;;;;;;5057781;28;19953;-73
2023/06/13 09:26:29;;;;;;;;;;;21.00;99.90;;;;;;5057950;28;20663;-77
2023/06/13 09:28:56;;;;;;;;;;;21.00;99.90;;;;;;5053289;28;20339;-77
2023/06/13 09:31:22;;;;;;;;;;;20.90;99.90;;;;;;5041941;28;19914;-75
2023/06/13 09:33:48;;;;;;;;;;;21.00;99.90;;;;;;5063445;28;19904;-74
2023/06/13 09:36:13;;;;;;;;;;;20.90;99.90;;;;;;5063239;28;19942;-75
2023/06/13 09:38:40;;;;;;;;;;;20.80;99.90;;;;;;5063040;28;20430;-75
2023/06/13 09:41:06;;;;;;;;;;;21.10;99.90;;;;;;5055381;28;19917;-75
2023/06/13 09:43:32;;;;;;;;;;;21.10;99.90;;;;;;5058362;28;19915;-75
2023/06/13 09:45:57;;;;;;;;;;;21.10;99.90;;;;;;5063197;28;19908;-74
2023/06/13 09:48:23;;;;;;;;;;;21.00;99.90;;;;;;5060613;28;19957;-74
2023/06/13 09:50:52;;;;;;;;;;;21.10;99.90;;;;;;5061275;28;19908;-75
2023/06/13 09:53:18;;;;;;;;;;;21.30;99.90;;;;;;5058338;28;20438;-74
2023/06/13 09:55:44;;;;;;;;;;;21.40;99.90;;;;;;5063538;28;19920;-75
2023/06/13 09:58:09;;;;;;;;;;;21.40;99.90;;;;;;5039348;28;19920;-75
2023/06/13 10:00:35;;;;;;;;;;;21.30;99.90;;;;;;5070098;28;19912;-75
2023/06/13 10:03:02;;;;;;;;;;;21.40;99.90;;;;;;5057225;28;19928;-74
2023/06/13 10:05:27;;;;;;;;;;;21.50;99.90;;;;;;5044661;28;19908;-74
2023/06/13 10:07:53;;;;;;;;;;;21.60;99.90;;;;;;5054193;28;19915;-75
2023/06/13 10:10:19;;;;;;;;;;;21.70;99.90;;;;;;5058460;28;19915;-75
2023/06/13 10:12:48;;;;;;;;;;;21.40;99.90;;;;;;5060072;28;20378;-79
2023/06/13 10:15:17;;;;;;;;;;;21.30;99.90;;;;;;5043842;28;19908;-76
2023/06/13 10:17:45;;;;;;;;;;;21.50;99.90;;;;;;5070327;28;19909;-74
2023/06/13 10:20:11;;;;;;;;;;;21.60;99.80;;;;;;5057477;28;19908;-74
2023/06/13 10:22:39;;;;;;;;;;;21.80;99.40;;;;;;5052114;28;19919;-74
2023/06/13 10:25:08;;;;;;;;;;;21.90;99.10;;;;;;5054663;28;20721;-77
2023/06/13 10:27:39;;;;;;;;;;;21.80;99.10;;;;;;5050590;28;19915;-77
2023/06/13 10:30:17;;;;;;;;;;;22.20;98.40;;;;;;5054735;28;19909;-79
2023/06/13 10:33:06;;;;;;;;;;;22.40;98.20;;;;;;5062735;28;19905;-73
2023/06/13 10:35:37;;;;;;;;;;;22.80;96.60;;;;;;5063475;28;19904;-74
2023/06/13 10:38:05;;;;;;;;;;;23.20;96.70;;;;;;5062854;28;19909;-75
2023/06/13 10:40:49;;;;;;;;;;;23.70;95.90;;;;;;5061906;28;19940;-76
2023/06/13 10:43:20;;;;;;;;;;;23.70;95.60;;;;;;5062266;28;20481;-79
2023/06/13 10:45:47;;;;;;;;;;;23.70;95.80;;;;;;5061678;28;19908;-74
2023/06/13 10:48:12;;;;;;;;;;;23.50;95.60;;;;;;5051242;28;20268;-73
2023/06/13 10:50:39;;;;;;;;;;;23.40;94.00;;;;;;5067314;28;19919;-74
2023/06/13 10:53:04;;;;;;;;;;;23.00;94.60;;;;;;5062052;28;19963;-77
2023/06/13 10:55:32;;;;;;;;;;;22.80;95.70;;;;;;5059732;28;20137;-79
2023/06/13 10:57:59;;;;;;;;;;;22.90;95.80;;;;;;5061196;28;19954;-74
2023/06/13 11:00:26;;;;;;;;;;;22.70;95.50;;;;;;5062948;28;20035;-77
2023/06/13 11:02:58;;;;;;;;;;;22.70;95.50;;;;;;5064533;28;19923;-75
2023/06/13 11:05:25;;;;;;;;;;;22.70;95.60;;;;;;5064091;28;19922;-74
2023/06/13 11:07:52;;;;;;;;;;;22.90;96.00;;;;;;5053477;28;19908;-75
2023/06/13 11:10:19;;;;;;;;;;;23.00;95.00;;;;;;5066308;28;19919;-74
2023/06/13 11:12:45;;;;;;;;;;;23.20;94.50;;;;;;5054276;28;19909;-79
2023/06/13 11:15:23;;;;;;;;;;;23.50;93.20;;;;;;5056920;28;19908;-76
2023/06/13 11:18:10;;;;;;;;;;;23.60;92.40;;;;;;5060085;28;19909;-74
2023/06/13 11:20:51;;;;;;;;;;;24.00;91.70;;;;;;5051541;28;19908;-75
2023/06/13 11:23:18;;;;;;;;;;;24.80;90.20;;;;;;5044608;28;20468;-74
2023/06/13 11:25:45;;;;;;;;;;;25.30;90.00;;;;;;5053783;28;19909;-75
2023/06/13 11:28:12;;;;;;;;;;;25.40;88.80;;;;;;5062188;28;20435;-76
2023/06/13 11:30:40;;;;;;;;;;;25.50;89.00;;;;;;5055250;28;19904;-74
2023/06/13 11:33:06;;;;;;;;;;;25.80;88.90;;;;;;5066104;28;19908;-74
2023/06/13 11:35:32;;;;;;;;;;;26.10;88.40;;;;;;5066365;28;19908;-74
2023/06/13 11:38:00;;;;;;;;;;;26.40;87.90;;;;;;5065211;28;19911;-73
2023/06/13 11:40:32;;;;;;;;;;;26.60;88.10;;;;;;5051621;28;19909;-74
2023/06/13 11:42:58;;;;;;;;;;;25.90;85.50;;;;;;5064662;28;19912;-74
2023/06/13 11:45:23;;;;;;;;;;;25.20;83.10;;;;;;5052932;28;19915;-74
2023/06/13 11:47:56;;;;;;;;;;;25.00;86.10;;;;;;5045727;28;19930;-79
2023/06/13 11:50:26;;;;;;;;;;;25.50;85.40;;;;;;5052950;28;20397;-74
2023/06/13 11:53:07;;;;;;;;;;;25.50;83.40;;;;;;5062040;28;19920;-74
2023/06/13 11:55:33;;;;;;;;;;;25.40;83.80;;;;;;5063288;28;19951;-74
2023/06/13 11:57:59;;;;;;;;;;;25.10;85.70;;;;;;5059020;28;20023;-74
2023/06/13 12:00:28;;;;;;;;;;;25.40;87.60;;;;;;5059551;28;19914;-79
2023/06/13 12:02:54;;;;;;;;;;;25.60;86.50;;;;;;5060806;28;19916;-74
2023/06/13 12:05:20;;;;;;;;;;;25.60;85.40;;;;;;5041734;28;20577;-76
2023/06/13 12:07:45;;;;;;;;;;;25.70;85.20;;;;;;5057409;28;19912;-78
2023/06/13 12:10:12;;;;;;;;;;;25.80;86.10;;;;;;5055741;28;19913;-75
2023/06/13 12:12:37;;;;;;;;;;;26.20;86.40;;;;;;5051944;28;19904;-74
2023/06/13 12:15:03;;;;;;;;;;;25.60;83.10;;;;;;5058940;28;19915;-74
2023/06/13 12:17:29;;;;;;;;;;;25.50;85.00;;;;;;5056108;28;19908;-76
2023/06/13 12:20:11;;;;;;;;;;;25.60;86.00;;;;;;5054054;28;19908;-78
2023/06/13 12:22:37;;;;;;;;;;;25.60;83.40;;;;;;5060083;28;19966;-75
2023/06/13 12:25:03;;;;;;;;;;;26.00;83.70;;;;;;5053712;28;20406;-74
2023/06/13 12:27:30;;;;;;;;;;;26.50;83.40;;;;;;5051143;28;20405;-77
2023/06/13 12:29:57;;;;;;;;;;;26.60;83.40;;;;;;5043167;28;20283;-75
2023/06/13 12:32:25;;;;;;;;;;;26.50;83.50;;;;;;5061081;28;19909;-74
2023/06/13 12:34:51;;;;;;;;;;;26.80;82.50;;;;;;5054838;28;19916;-74
2023/06/13 12:37:17;;;;;;;;;;;27.10;78.80;;;;;;5063649;28;19914;-75
2023/06/13 12:40:03;;;;;;;;;;;27.00;79.80;;;;;;5063898;28;19908;-75
2023/06/13 12:42:29;;;;;;;;;;;26.90;80.70;;;;;;5062000;28;19997;-74
2023/06/13 12:44:56;;;;;;;;;;;26.40;82.10;;;;;;5052313;28;19917;-79
2023/06/13 12:47:21;;;;;;;;;;;26.10;80.10;;;;;;5062542;28;19936;-74
2023/06/13 12:49:47;;;;;;;;;;;26.20;82.70;;;;;;5062433;28;19956;-74
2023/06/13 12:52:15;;;;;;;;;;;26.00;83.70;;;;;;5045357;28;19908;-73
2023/06/13 12:54:41;;;;;;;;;;;26.30;80.50;;;;;;5063655;28;19957;-75
2023/06/13 12:57:08;;;;;;;;;;;26.60;81.40;;;;;;5058965;28;19909;-75
2023/06/13 12:59:35;;;;;;;;;;;26.70;80.00;;;;;;5060724;28;20649;-76
2023/06/13 13:02:03;;;;;;;;;;;26.40;82.40;;;;;;5059612;28;19917;-77
2023/06/13 13:04:29;;;;;;;;;;;26.30;80.60;;;;;;5056931;28;20333;-75
2023/06/13 13:06:56;;;;;;;;;;;25.90;80.40;;;;;;5042958;28;20413;-77
2023/06/13 13:09:22;;;;;;;;;;;25.70;81.00;;;;;;5065711;28;19994;-75
2023/06/13 13:11:47;;;;;;;;;;;25.70;83.80;;;;;;5057327;28;19904;-74
2023/06/13 13:14:13;;;;;;;;;;;25.60;83.70;;;;;;5061749;28;20698;-74
2023/06/13 13:16:39;;;;;;;;;;;25.60;84.80;;;;;;5054208;28;19909;-74
2023/06/13 13:19:04;;;;;;;;;;;25.60;86.70;;;;;;5050869;28;19952;-78
2023/06/13 13:21:30;;;;;;;;;;;25.90;87.60;;;;;;5057632;28;19917;-76
2023/06/13 13:23:55;;;;;;;;;;;26.10;81.10;;;;;;5053727;28;20442;-75
2023/06/13 13:26:21;;;;;;;;;;;25.40;79.60;;;;;;5050744;28;19909;-75
2023/06/13 13:28:47;;;;;;;;;;;25.60;79.00;;;;;;5053768;28;19951;-74
2023/06/13 13:31:12;;;;;;;;;;;25.90;78.00;;;;;;5066897;28;20003;-75
2023/06/13 13:33:38;;;;;;;;;;;26.40;81.50;;;;;;5069378;28;19947;-74
2023/06/13 13:36:04;;;;;;;;;;;26.40;80.50;;;;;;5057285;28;19935;-76
2023/06/13 13:38:30;;;;;;;;;;;26.50;80.80;;;;;;5057038;28;20469;-74
2023/06/13 13:40:55;;;;;;;;;;;25.90;77.90;;;;;;5063552;28;19944;-78
2023/06/13 13:43:21;;;;;;;;;;;25.50;80.20;;;;;;5062420;28;20497;-76
2023/06/13 13:45:46;;;;;;;;;;;25.10;78.70;;;;;;5060936;28;19936;-74
2023/06/13 13:48:13;;;;;;;;;;;25.00;79.40;;;;;;5063218;28;19923;-76
2023/06/13 13:50:39;;;;;;;;;;;25.00;81.10;;;;;;5059066;28;19908;-79
2023/06/13 13:53:07;;;;;;;;;;;24.90;79.70;;;;;;5059942;28;19930;-78
2023/06/13 13:55:33;;;;;;;;;;;25.10;80.80;;;;;;5061178;28;19947;-76
2023/06/13 13:57:58;;;;;;;;;;;25.70;80.60;;;;;;5059174;28;20383;-75
2023/06/13 14:00:24;;;;;;;;;;;25.90;80.20;;;;;;5060712;28;20802;-74
2023/06/13 14:02:50;;;;;;;;;;;25.90;78.90;;;;;;5044035;28;19918;-78
2023/06/13 14:05:16;;;;;;;;;;;25.60;79.80;;;;;;5044535;28;19934;-76
2023/06/13 14:07:42;;;;;;;;;;;25.00;83.00;;;;;;5055642;28;20374;-75
2023/06/13 14:10:07;;;;;;;;;;;24.60;84.10;;;;;;5054510;28;19951;-75
2023/06/13 14:12:33;;;;;;;;;;;24.40;84.10;;;;;;5056498;28;19911;-74
2023/06/13 14:14:58;;;;;;;;;;;24.30;85.80;;;;;;5052675;28;19909;-75